< < Back
Terminal Aerodrome Forecast


Current Version              Previous Versions:   1  2  3  4  5  6  7  8  9  

Terminal Aerodrome Forecast

195
FTUS42 KMLB 211000 AAA
TAFMCO
TAF AMD
KMCO 211029Z 2110/2206 02003KT P6SM BKN080 OVC250
     FM211400 16004KT P6SM SCT025 OVC050
     FM211800 19007KT P6SM SCT020 OVC040
     FM220300 15005KT P6SM VCSH SCT010 BKN020 OVC040=

Latest METAR

164
SAUS70 KWBC 211000 RRL
MTRMCO
METAR KMCO 210953Z 02003KT 9SM BKN080 OVC250 17/17 A3007 RMK AO2 SLP180
T01720167


USA.gov is the U.S. government's official web portal to all federal, state and local government web resources and services.